createdAt,value
2022-08-25T00:00:07.308Z,995.34
2022-08-25T00:01:07.297Z,995.31
2022-08-25T00:02:07.288Z,995.29
2022-08-25T00:03:07.345Z,995.33
2022-08-25T00:04:07.283Z,995.33
2022-08-25T00:05:07.469Z,995.30
2022-08-25T00:06:07.279Z,995.27
2022-08-25T00:07:07.439Z,995.29
2022-08-25T00:08:07.342Z,995.28
2022-08-25T00:09:07.311Z,995.26
2022-08-25T00:10:07.255Z,995.28
2022-08-25T00:11:07.275Z,995.30
2022-08-25T00:12:07.272Z,995.29
2022-08-25T00:13:07.305Z,995.30
2022-08-25T00:14:07.257Z,995.30
2022-08-25T00:15:07.237Z,995.28
2022-08-25T00:16:07.497Z,995.26
2022-08-25T00:17:07.236Z,995.27
2022-08-25T00:18:19.957Z,995.26
2022-08-25T00:19:07.207Z,995.28
2022-08-25T00:20:07.237Z,995.26
2022-08-25T00:21:07.241Z,995.28
2022-08-25T00:22:07.228Z,995.24
2022-08-25T00:23:07.209Z,995.27
2022-08-25T00:24:07.206Z,995.30
2022-08-25T00:25:07.207Z,995.26
2022-08-25T00:26:07.178Z,995.28
2022-08-25T00:27:07.196Z,995.25
2022-08-25T00:28:08.626Z,995.27
2022-08-25T00:29:07.165Z,995.29
2022-08-25T00:30:07.159Z,995.26
2022-08-25T00:31:07.229Z,995.32
2022-08-25T00:32:07.158Z,995.31
2022-08-25T00:33:07.151Z,995.29
2022-08-25T00:34:07.135Z,995.29
2022-08-25T00:35:07.136Z,995.31
2022-08-25T00:36:07.124Z,995.30
2022-08-25T00:37:07.134Z,995.28
2022-08-25T00:38:07.118Z,995.28
2022-08-25T00:39:07.110Z,995.32
2022-08-25T00:40:07.209Z,995.29
2022-08-25T00:41:07.115Z,995.29
2022-08-25T00:42:11.875Z,995.29
2022-08-25T00:43:07.122Z,995.29
2022-08-25T00:44:07.113Z,995.27
2022-08-25T00:45:07.115Z,995.29
2022-08-25T00:46:07.128Z,995.24
2022-08-25T00:47:07.088Z,995.28
2022-08-25T00:48:07.222Z,995.30
2022-08-25T00:49:07.093Z,995.27
2022-08-25T00:50:07.086Z,995.29
2022-08-25T00:51:07.074Z,995.27
2022-08-25T00:52:07.066Z,995.30
2022-08-25T00:53:07.080Z,995.28
2022-08-25T00:54:07.047Z,995.32
2022-08-25T00:55:08.267Z,995.32
2022-08-25T00:56:07.028Z,995.31
2022-08-25T00:57:07.041Z,995.34
2022-08-25T00:58:07.036Z,995.35
2022-08-25T00:59:07.023Z,995.33
2022-08-25T01:00:07.047Z,995.29
2022-08-25T01:01:07.061Z,995.27
2022-08-25T01:02:07.018Z,995.28
2022-08-25T01:03:07.126Z,995.24
2022-08-25T01:04:06.986Z,995.25
2022-08-25T01:05:07.014Z,995.22
2022-08-25T01:06:06.979Z,995.21
2022-08-25T01:07:06.981Z,995.20
2022-08-25T01:08:07.076Z,995.19
2022-08-25T01:09:06.983Z,995.19
2022-08-25T01:10:06.989Z,995.16
2022-08-25T01:11:06.967Z,995.16
2022-08-25T01:12:06.961Z,995.15
2022-08-25T01:13:06.964Z,995.15
2022-08-25T01:14:06.960Z,995.17
2022-08-25T01:15:06.932Z,995.16
2022-08-25T01:16:06.999Z,995.13
2022-08-25T01:17:06.959Z,995.14
2022-08-25T01:18:07.047Z,995.13
2022-08-25T01:19:06.924Z,995.11
2022-08-25T01:20:06.934Z,995.12
2022-08-25T01:21:06.911Z,995.08
2022-08-25T01:22:06.913Z,995.15
2022-08-25T01:23:06.904Z,995.08
2022-08-25T01:24:06.920Z,995.09
2022-08-25T01:25:06.893Z,995.07
2022-08-25T01:26:06.888Z,995.08
2022-08-25T01:27:06.886Z,995.09
2022-08-25T01:28:07.023Z,995.07
2022-08-25T01:29:06.873Z,995.08
2022-08-25T01:30:06.878Z,995.05
2022-08-25T01:31:23.665Z,995.08
2022-08-25T01:32:06.865Z,995.07
2022-08-25T01:33:06.865Z,995.04
2022-08-25T01:34:06.853Z,995.06
2022-08-25T01:35:06.845Z,995.06
2022-08-25T01:36:06.839Z,995.08
2022-08-25T01:37:06.829Z,995.04
2022-08-25T01:38:06.824Z,995.09
2022-08-25T01:39:06.829Z,995.07
2022-08-25T01:40:06.890Z,995.04
2022-08-25T01:41:06.823Z,995.05
2022-08-25T01:42:06.817Z,995.06
2022-08-25T01:43:06.808Z,995.08
2022-08-25T01:44:06.794Z,995.03
2022-08-25T01:45:06.777Z,995.03
2022-08-25T01:46:06.832Z,995.01
2022-08-25T01:47:06.777Z,995.00
2022-08-25T01:48:06.775Z,995.00
2022-08-25T01:49:06.992Z,994.99
2022-08-25T01:50:06.768Z,995.02
2022-08-25T01:51:06.762Z,995.03
2022-08-25T01:52:06.772Z,995.02
2022-08-25T01:53:06.747Z,995.01
2022-08-25T01:54:06.743Z,995.03
2022-08-25T01:55:06.741Z,995.01
2022-08-25T01:56:09.754Z,995.00
2022-08-25T01:57:06.761Z,995.04
2022-08-25T01:58:06.723Z,995.02
2022-08-25T01:59:06.727Z,995.03
2022-08-25T02:00:06.710Z,995.02
2022-08-25T02:01:06.746Z,995.03
2022-08-25T02:02:06.748Z,995.03
2022-08-25T02:03:06.706Z,995.03
2022-08-25T02:04:06.699Z,995.05
2022-08-25T02:05:06.685Z,995.02
2022-08-25T02:06:06.690Z,994.98
2022-08-25T02:07:06.681Z,994.96
2022-08-25T02:08:06.843Z,994.94
2022-08-25T02:09:06.692Z,994.94
2022-08-25T02:10:06.664Z,994.91
2022-08-25T02:11:06.659Z,994.91
2022-08-25T02:12:06.658Z,994.92
2022-08-25T02:13:06.651Z,994.93
2022-08-25T02:14:06.636Z,994.93
2022-08-25T02:15:06.634Z,994.88
2022-08-25T02:16:06.630Z,994.88
2022-08-25T02:17:06.703Z,994.89
2022-08-25T02:18:06.773Z,994.88
2022-08-25T02:19:06.618Z,994.89
2022-08-25T02:20:06.617Z,994.84
2022-08-25T02:21:06.606Z,994.85
2022-08-25T02:22:06.605Z,994.85
2022-08-25T02:23:06.610Z,994.85
2022-08-25T02:24:06.597Z,994.83
2022-08-25T02:25:06.591Z,994.84
2022-08-25T02:26:06.587Z,994.82
2022-08-25T02:27:06.579Z,994.82
2022-08-25T02:28:06.817Z,994.81
2022-08-25T02:29:06.556Z,994.79
2022-08-25T02:30:06.564Z,994.78
2022-08-25T02:31:06.617Z,994.78
2022-08-25T02:32:06.545Z,994.75
2022-08-25T02:33:06.538Z,994.72
2022-08-25T02:34:06.550Z,994.72
2022-08-25T02:35:06.535Z,994.72
2022-08-25T02:36:06.526Z,994.70
2022-08-25T02:37:06.573Z,994.68
2022-08-25T02:38:06.748Z,994.69
2022-08-25T02:39:06.519Z,994.70
2022-08-25T02:40:06.602Z,994.72
2022-08-25T02:41:06.494Z,994.72
2022-08-25T02:42:06.501Z,994.71
2022-08-25T02:43:06.503Z,994.70
2022-08-25T02:44:06.504Z,994.74
2022-08-25T02:45:06.501Z,994.74
2022-08-25T02:46:06.579Z,994.73
2022-08-25T02:47:06.467Z,994.75
2022-08-25T02:48:06.691Z,994.75
2022-08-25T02:49:06.461Z,994.71
2022-08-25T02:50:06.459Z,994.73
2022-08-25T02:51:06.448Z,994.69
2022-08-25T02:52:06.443Z,994.69
2022-08-25T02:53:06.643Z,994.68
2022-08-25T02:54:06.453Z,994.64
2022-08-25T02:55:06.424Z,994.65
2022-08-25T02:56:06.443Z,994.65
2022-08-25T02:57:06.425Z,994.67
2022-08-25T02:58:06.635Z,994.69
2022-08-25T02:59:06.423Z,994.74
2022-08-25T03:00:06.411Z,994.72
2022-08-25T03:01:06.464Z,994.73
2022-08-25T03:02:06.385Z,994.69
2022-08-25T03:03:06.381Z,994.75
2022-08-25T03:04:06.377Z,994.74
2022-08-25T03:05:06.474Z,994.73
2022-08-25T03:06:06.389Z,994.71
2022-08-25T03:07:06.398Z,994.69
2022-08-25T03:08:06.544Z,994.64
2022-08-25T03:09:06.352Z,994.68
2022-08-25T03:10:06.367Z,994.70
2022-08-25T03:11:06.668Z,994.68
2022-08-25T03:12:06.354Z,994.69
2022-08-25T03:13:06.335Z,994.69
2022-08-25T03:14:06.342Z,994.66
2022-08-25T03:15:09.284Z,994.66
2022-08-25T03:16:10.790Z,994.71
2022-08-25T03:17:08.729Z,994.69
2022-08-25T03:18:06.575Z,994.70
2022-08-25T03:19:06.323Z,994.69
2022-08-25T03:20:06.335Z,994.66
2022-08-25T03:21:06.314Z,994.68
2022-08-25T03:22:06.393Z,994.67
2022-08-25T03:23:06.309Z,994.75
2022-08-25T03:24:06.396Z,994.73
2022-08-25T03:25:06.290Z,994.76
2022-08-25T03:26:06.307Z,994.73
2022-08-25T03:27:06.282Z,994.73
2022-08-25T03:28:06.429Z,994.75
2022-08-25T03:29:06.281Z,994.74
2022-08-25T03:30:06.297Z,994.74
2022-08-25T03:31:06.245Z,994.72
2022-08-25T03:32:06.418Z,994.73
2022-08-25T03:33:06.264Z,994.73
2022-08-25T03:34:06.256Z,994.73
2022-08-25T03:35:06.256Z,994.70
2022-08-25T03:36:06.266Z,994.69
2022-08-25T03:37:06.251Z,994.71
2022-08-25T03:38:06.480Z,994.63
2022-08-25T03:39:06.221Z,994.69
2022-08-25T03:40:06.264Z,994.70
2022-08-25T03:41:06.201Z,994.68
2022-08-25T03:42:06.230Z,994.67
2022-08-25T03:43:06.253Z,994.63
2022-08-25T03:44:06.381Z,994.62
2022-08-25T03:45:06.210Z,994.63
2022-08-25T03:46:06.265Z,994.63
2022-08-25T03:47:06.175Z,994.63
2022-08-25T03:48:06.357Z,994.65
2022-08-25T03:49:06.159Z,994.62
2022-08-25T03:50:06.160Z,994.62
2022-08-25T03:51:06.156Z,994.59
2022-08-25T03:52:06.153Z,994.60
2022-08-25T03:53:06.191Z,994.63
2022-08-25T03:54:06.145Z,994.58
2022-08-25T03:55:06.165Z,994.59
2022-08-25T03:56:06.256Z,994.59
2022-08-25T03:57:06.136Z,994.63
2022-08-25T03:58:06.367Z,994.61
2022-08-25T03:59:06.120Z,994.61
2022-08-25T04:00:06.280Z,994.62
2022-08-25T04:01:06.131Z,994.63
2022-08-25T04:02:06.147Z,994.64
2022-08-25T04:03:06.155Z,994.65
2022-08-25T04:04:06.104Z,994.66
2022-08-25T04:05:06.085Z,994.69
2022-08-25T04:06:06.070Z,994.67
2022-08-25T04:07:06.087Z,994.68
2022-08-25T04:08:06.176Z,994.67
2022-08-25T04:09:06.074Z,994.69
2022-08-25T04:10:06.056Z,994.68
2022-08-25T04:11:06.039Z,994.69
2022-08-25T04:12:06.026Z,994.67
2022-08-25T04:13:06.022Z,994.68
2022-08-25T04:14:06.010Z,994.69
2022-08-25T04:15:06.006Z,994.69
2022-08-25T04:16:06.059Z,994.71
2022-08-25T04:17:06.010Z,994.73
2022-08-25T04:18:06.230Z,994.72
2022-08-25T04:19:06.012Z,994.74
2022-08-25T04:20:06.020Z,994.72
2022-08-25T04:21:06.004Z,994.75
2022-08-25T04:22:05.990Z,994.73
2022-08-25T04:23:06.001Z,994.79
2022-08-25T04:24:05.970Z,994.79
2022-08-25T04:25:05.969Z,994.79
2022-08-25T04:26:05.987Z,994.78
2022-08-25T04:27:06.009Z,994.78
2022-08-25T04:28:06.120Z,994.77
2022-08-25T04:29:05.943Z,994.76
2022-08-25T04:30:05.956Z,994.76
2022-08-25T04:31:05.958Z,994.74
2022-08-25T04:32:06.032Z,994.76
2022-08-25T04:33:05.911Z,994.75
2022-08-25T04:34:14.776Z,994.76
2022-08-25T04:35:05.918Z,994.75
2022-08-25T04:36:11.423Z,994.74
2022-08-25T04:37:05.891Z,994.75
2022-08-25T04:38:06.064Z,994.77
2022-08-25T04:39:05.891Z,994.79
2022-08-25T04:40:05.923Z,994.79
2022-08-25T04:41:05.880Z,994.78
2022-08-25T04:42:05.914Z,994.78
2022-08-25T04:43:05.910Z,994.79
2022-08-25T04:44:05.912Z,994.78
2022-08-25T04:45:05.960Z,994.78
2022-08-25T04:46:05.926Z,994.76
2022-08-25T04:47:05.846Z,994.76
2022-08-25T04:48:06.053Z,994.74
2022-08-25T04:49:05.831Z,994.73
2022-08-25T04:50:05.891Z,994.74
2022-08-25T04:51:05.814Z,994.73
2022-08-25T04:52:05.854Z,994.72
2022-08-25T04:53:05.827Z,994.73
2022-08-25T04:54:05.842Z,994.72
2022-08-25T04:55:05.814Z,994.69
2022-08-25T04:56:05.830Z,994.66
2022-08-25T04:57:05.829Z,994.62
2022-08-25T04:58:05.990Z,994.58
2022-08-25T04:59:05.854Z,994.59
2022-08-25T05:00:05.791Z,994.61
2022-08-25T05:01:05.892Z,994.59
2022-08-25T05:02:05.786Z,994.58
2022-08-25T05:03:05.784Z,994.57
2022-08-25T05:04:05.795Z,994.59
2022-08-25T05:05:05.789Z,994.58
2022-08-25T05:06:05.776Z,994.59
2022-08-25T05:07:05.798Z,994.64
2022-08-25T05:08:05.880Z,994.65
2022-08-25T05:09:05.756Z,994.68
2022-08-25T05:10:05.779Z,994.69
2022-08-25T05:11:05.737Z,994.72
2022-08-25T05:12:05.733Z,994.71
2022-08-25T05:13:05.718Z,994.71
2022-08-25T05:14:05.942Z,994.73
2022-08-25T05:15:05.721Z,994.71
2022-08-25T05:16:05.773Z,994.72
2022-08-25T05:17:05.724Z,994.69
2022-08-25T05:18:05.751Z,994.72
2022-08-25T05:19:05.717Z,994.72
2022-08-25T05:20:05.672Z,994.71
2022-08-25T05:21:05.689Z,994.72
2022-08-25T05:22:05.705Z,994.74
2022-08-25T05:23:05.674Z,994.74
2022-08-25T05:24:05.683Z,994.76
2022-08-25T05:25:05.681Z,994.76
2022-08-25T05:26:05.653Z,994.79
2022-08-25T05:27:05.663Z,994.78
2022-08-25T05:28:05.837Z,994.80
2022-08-25T05:29:05.690Z,994.84
2022-08-25T05:30:05.620Z,994.83
2022-08-25T05:31:05.683Z,994.84
2022-08-25T05:32:05.703Z,994.88
2022-08-25T05:33:05.679Z,994.87
2022-08-25T05:34:05.610Z,994.91
2022-08-25T05:35:05.631Z,994.88
2022-08-25T05:36:05.627Z,994.86
2022-08-25T05:37:08.273Z,994.84
2022-08-25T05:38:05.721Z,994.84
2022-08-25T05:39:05.588Z,994.78
2022-08-25T05:40:05.680Z,994.81
2022-08-25T05:41:05.562Z,994.86
2022-08-25T05:42:05.564Z,994.87
2022-08-25T05:43:05.592Z,994.87
2022-08-25T05:44:05.586Z,994.85
2022-08-25T05:45:05.574Z,994.81
2022-08-25T05:46:05.722Z,994.82
2022-08-25T05:47:05.573Z,994.82
2022-08-25T05:48:05.774Z,994.78
2022-08-25T05:49:05.535Z,994.77
2022-08-25T05:50:05.583Z,994.79
2022-08-25T05:51:05.563Z,994.77
2022-08-25T05:52:05.559Z,994.74
2022-08-25T05:53:05.540Z,994.78
2022-08-25T05:57:05.512Z,994.75
2022-08-25T05:58:05.733Z,994.72
2022-08-25T05:59:09.224Z,994.73
2022-08-25T06:00:05.552Z,994.72
2022-08-25T06:01:05.547Z,994.70
2022-08-25T06:02:05.483Z,994.70
2022-08-25T06:03:05.473Z,994.70
2022-08-25T06:04:05.562Z,994.69
2022-08-25T06:05:05.501Z,994.67
2022-08-25T06:06:05.508Z,994.71
2022-08-25T06:07:05.494Z,994.69
2022-08-25T06:08:05.612Z,994.67
2022-08-25T06:09:05.489Z,994.65
2022-08-25T06:10:05.457Z,994.64
2022-08-25T06:11:05.476Z,994.59
2022-08-25T06:12:05.441Z,994.58
2022-08-25T06:13:06.461Z,994.61
2022-08-25T06:14:05.460Z,994.59
2022-08-25T06:15:05.428Z,994.59
2022-08-25T06:16:05.469Z,994.63
2022-08-25T06:17:05.469Z,994.64
2022-08-25T06:18:05.814Z,994.65
2022-08-25T06:19:05.403Z,994.64
2022-08-25T06:20:05.749Z,994.64
2022-08-25T06:21:05.423Z,994.63
2022-08-25T06:22:05.419Z,994.64
2022-08-25T06:23:05.405Z,994.61
2022-08-25T06:24:05.395Z,994.63
2022-08-25T06:25:05.498Z,994.57
2022-08-25T06:26:05.381Z,994.62
2022-08-25T06:27:05.396Z,994.61
2022-08-25T06:28:05.584Z,994.58
2022-08-25T06:29:05.370Z,994.56
2022-08-25T06:30:07.855Z,994.55
2022-08-25T06:31:05.445Z,994.54
2022-08-25T06:32:05.392Z,994.56
2022-08-25T06:33:05.391Z,994.53
2022-08-25T06:34:05.383Z,994.56
2022-08-25T06:35:05.575Z,994.54
2022-08-25T06:36:05.379Z,994.56
2022-08-25T06:37:05.379Z,994.56
2022-08-25T06:38:05.610Z,994.57
2022-08-25T06:39:05.355Z,994.58
2022-08-25T06:40:05.380Z,994.60
2022-08-25T06:41:05.335Z,994.61
2022-08-25T06:42:05.311Z,994.61
2022-08-25T06:43:05.325Z,994.65
2022-08-25T06:44:05.787Z,994.63
2022-08-25T06:45:05.331Z,994.65
2022-08-25T06:46:05.361Z,994.65
2022-08-25T06:47:05.367Z,994.66
2022-08-25T06:48:05.493Z,994.67
2022-08-25T06:49:05.312Z,994.68
2022-08-25T06:50:05.298Z,994.69
2022-08-25T06:51:05.345Z,994.67
2022-08-25T06:52:05.295Z,994.71
2022-08-25T06:53:05.307Z,994.69
2022-08-25T06:54:05.321Z,994.65
2022-08-25T06:55:05.300Z,994.66
2022-08-25T06:56:06.720Z,994.66
2022-08-25T06:57:05.296Z,994.65
2022-08-25T06:58:05.574Z,994.67
2022-08-25T06:59:05.281Z,994.67
2022-08-25T07:00:05.269Z,994.68
2022-08-25T07:01:05.245Z,994.70
2022-08-25T07:02:05.341Z,994.71
2022-08-25T07:03:05.269Z,994.68
2022-08-25T07:04:10.053Z,994.69
2022-08-25T07:05:06.393Z,994.67
2022-08-25T07:06:05.281Z,994.68
2022-08-25T07:07:05.246Z,994.68
2022-08-25T07:08:05.507Z,994.68
2022-08-25T07:09:05.279Z,994.70
2022-08-25T07:10:05.283Z,994.70
2022-08-25T07:11:05.263Z,994.71
2022-08-25T07:12:05.249Z,994.73
2022-08-25T07:13:05.232Z,994.68
2022-08-25T07:14:05.212Z,994.67
2022-08-25T07:15:19.463Z,994.70
2022-08-25T07:16:05.321Z,994.74
2022-08-25T07:17:12.052Z,994.68
2022-08-25T07:18:05.821Z,994.69
2022-08-25T07:19:05.194Z,994.70
2022-08-25T07:20:05.280Z,994.68
2022-08-25T07:21:05.219Z,994.65
2022-08-25T07:22:05.194Z,994.63
2022-08-25T07:23:05.401Z,994.62
2022-08-25T07:24:05.222Z,994.63
2022-08-25T07:25:06.027Z,994.61
2022-08-25T07:26:11.841Z,994.64
2022-08-25T07:27:05.177Z,994.64
2022-08-25T07:28:05.182Z,994.57
2022-08-25T07:29:05.190Z,994.55
2022-08-25T07:30:05.154Z,994.55
2022-08-25T07:31:05.223Z,994.54
2022-08-25T07:32:05.168Z,994.56
2022-08-25T07:33:06.940Z,994.52
2022-08-25T07:34:05.161Z,994.53
2022-08-25T07:35:05.179Z,994.55
2022-08-25T07:36:05.154Z,994.58
2022-08-25T07:37:05.281Z,994.57
2022-08-25T07:38:05.155Z,994.60
2022-08-25T07:39:05.125Z,994.58
2022-08-25T07:40:05.248Z,994.57
2022-08-25T07:41:05.150Z,994.54
2022-08-25T07:42:05.127Z,994.56
2022-08-25T07:43:05.356Z,994.52
2022-08-25T07:44:05.134Z,994.51
2022-08-25T07:45:05.139Z,994.54
2022-08-25T07:46:05.164Z,994.53
2022-08-25T07:47:05.112Z,994.51
2022-08-25T07:48:05.163Z,994.49
2022-08-25T07:49:05.101Z,994.51
2022-08-25T07:50:05.672Z,994.49
2022-08-25T07:51:05.599Z,994.47
2022-08-25T07:52:06.638Z,994.46
2022-08-25T07:53:05.987Z,994.49
2022-08-25T07:54:05.147Z,994.49
2022-08-25T07:55:08.145Z,994.46
2022-08-25T07:57:05.405Z,994.50
2022-08-25T07:58:05.113Z,994.52
2022-08-25T07:59:05.118Z,994.46
2022-08-25T08:00:05.119Z,994.47
2022-08-25T08:01:05.277Z,994.47
2022-08-25T08:02:05.208Z,994.44
2022-08-25T08:03:05.373Z,994.46
2022-08-25T08:04:05.179Z,994.44
2022-08-25T08:05:05.138Z,994.41
2022-08-25T08:06:05.123Z,994.40
2022-08-25T08:07:05.123Z,994.42
2022-08-25T08:08:05.247Z,994.50
2022-08-25T08:09:05.354Z,994.66
2022-08-25T08:10:29.724Z,994.78
2022-08-25T08:11:05.678Z,994.88
2022-08-25T08:12:05.086Z,994.94
2022-08-25T08:13:07.343Z,994.93
2022-08-25T08:14:05.124Z,994.95
2022-08-25T08:15:05.096Z,994.82
2022-08-25T08:16:05.183Z,994.54
2022-08-25T08:17:05.165Z,994.43
2022-08-25T08:18:05.104Z,994.43
2022-08-25T08:19:05.111Z,994.42
2022-08-25T08:20:05.126Z,994.40
2022-08-25T08:21:05.350Z,994.41
2022-08-25T08:22:05.519Z,994.44
2022-08-25T08:23:05.357Z,994.39
2022-08-25T08:24:14.907Z,994.42
2022-08-25T08:25:05.101Z,994.40
2022-08-25T08:26:05.114Z,994.41
2022-08-25T08:27:05.135Z,994.41
2022-08-25T08:28:07.473Z,994.42
2022-08-25T08:29:05.169Z,994.40
2022-08-25T08:30:05.152Z,994.41
2022-08-25T08:31:05.185Z,994.39
2022-08-25T08:32:05.331Z,994.43
2022-08-25T08:33:12.954Z,994.34
2022-08-25T08:34:05.127Z,994.37
2022-08-25T08:35:05.177Z,994.32
2022-08-25T08:36:05.498Z,994.33
2022-08-25T08:37:05.111Z,994.33
2022-08-25T08:38:08.949Z,994.28
2022-08-25T08:39:05.150Z,994.20
2022-08-25T08:40:05.235Z,994.19
2022-08-25T08:41:05.145Z,994.18
2022-08-25T08:42:11.156Z,994.15
2022-08-25T08:43:05.352Z,994.16
2022-08-25T08:45:05.166Z,994.17
2022-08-25T08:46:05.234Z,994.14
2022-08-25T08:47:05.138Z,994.17
2022-08-25T08:48:06.615Z,994.17
2022-08-25T08:49:05.146Z,994.20
2022-08-25T08:50:05.142Z,994.18
2022-08-25T08:51:10.058Z,994.23
2022-08-25T08:52:05.153Z,994.24
2022-08-25T08:53:05.171Z,994.26
2022-08-25T08:54:05.652Z,994.24
2022-08-25T08:55:05.484Z,994.24
2022-08-25T08:56:05.151Z,994.30
2022-08-25T08:57:05.205Z,994.30
2022-08-25T08:58:05.259Z,994.27
2022-08-25T08:59:06.235Z,994.24
2022-08-25T09:00:05.164Z,994.24
2022-08-25T09:01:05.163Z,994.22
2022-08-25T09:02:05.261Z,994.16
2022-08-25T09:03:05.343Z,994.17
2022-08-25T09:04:05.161Z,994.13
2022-08-25T09:05:05.163Z,994.08
2022-08-25T09:06:06.794Z,994.07
2022-08-25T09:07:05.143Z,994.09
2022-08-25T09:08:05.326Z,994.04
2022-08-25T09:09:06.961Z,994.09
2022-08-25T09:10:05.374Z,994.04
2022-08-25T09:11:05.200Z,993.99
2022-08-25T09:12:05.173Z,993.99
2022-08-25T09:13:11.280Z,994.04
2022-08-25T09:14:05.381Z,994.01
2022-08-25T09:15:12.730Z,993.97
2022-08-25T09:16:05.291Z,994.00
2022-08-25T09:17:05.165Z,994.04
2022-08-25T09:18:05.160Z,994.07
2022-08-25T09:19:05.144Z,993.99
2022-08-25T09:20:05.148Z,994.03
2022-08-25T09:21:05.204Z,994.03
2022-08-25T09:22:35.256Z,993.99
2022-08-25T09:23:05.162Z,994.01
2022-08-25T09:24:05.188Z,993.98
2022-08-25T09:25:08.539Z,993.99
2022-08-25T09:26:05.207Z,994.00
2022-08-25T09:27:05.159Z,994.01
2022-08-25T09:28:05.341Z,993.96
2022-08-25T09:29:06.140Z,993.95
2022-08-25T09:30:05.565Z,993.94
2022-08-25T09:31:05.202Z,993.94
2022-08-25T09:32:05.212Z,993.90
2022-08-25T09:33:05.514Z,993.97
2022-08-25T09:34:05.192Z,993.96
2022-08-25T09:35:05.149Z,993.98
2022-08-25T09:36:06.114Z,993.92
2022-08-25T09:37:05.170Z,993.88
2022-08-25T09:38:05.464Z,993.96
2022-08-25T09:39:05.176Z,993.99
2022-08-25T09:40:05.278Z,993.94
2022-08-25T09:41:05.179Z,993.95
2022-08-25T09:42:05.179Z,993.86
2022-08-25T09:43:05.147Z,993.87
2022-08-25T09:44:05.164Z,993.87
2022-08-25T09:45:05.165Z,993.85
2022-08-25T09:46:05.288Z,993.86
2022-08-25T09:47:05.181Z,993.84
2022-08-25T09:48:05.322Z,993.81
2022-08-25T09:49:05.201Z,993.83
2022-08-25T09:50:05.519Z,993.80
2022-08-25T09:51:05.653Z,993.83
2022-08-25T09:52:05.173Z,993.84
2022-08-25T09:53:15.233Z,993.81
2022-08-25T09:54:10.794Z,993.78
2022-08-25T09:55:05.150Z,993.75
2022-08-25T09:56:05.164Z,993.76
2022-08-25T09:57:05.165Z,993.72
2022-08-25T09:58:09.509Z,993.75
2022-08-25T09:59:05.357Z,993.73
2022-08-25T10:00:05.164Z,993.74
2022-08-25T10:01:05.344Z,993.77
2022-08-25T10:02:05.230Z,993.74
2022-08-25T10:03:05.625Z,993.74
2022-08-25T10:04:05.167Z,993.71
2022-08-25T10:05:05.204Z,993.77
2022-08-25T10:06:05.146Z,993.75
2022-08-25T10:07:05.186Z,993.71
2022-08-25T10:08:05.165Z,993.66
2022-08-25T10:09:05.990Z,993.62
2022-08-25T10:10:05.193Z,993.58
2022-08-25T10:11:06.558Z,993.55
2022-08-25T10:12:05.161Z,993.59
2022-08-25T10:13:06.695Z,993.63
2022-08-25T10:14:05.178Z,993.64
2022-08-25T10:15:05.133Z,993.60
2022-08-25T10:16:05.193Z,993.60
2022-08-25T10:17:05.136Z,993.55
2022-08-25T10:18:05.148Z,993.59
2022-08-25T10:19:05.155Z,993.53
2022-08-25T10:20:05.149Z,993.52
2022-08-25T10:21:07.846Z,993.50
2022-08-25T10:22:05.164Z,993.51
2022-08-25T10:23:05.437Z,993.48
2022-08-25T10:24:05.141Z,993.44
2022-08-25T10:25:05.122Z,993.42
2022-08-25T10:26:05.122Z,993.39
2022-08-25T10:27:05.319Z,993.38
2022-08-25T10:28:05.338Z,993.38
2022-08-25T10:29:05.178Z,993.37
2022-08-25T10:30:05.365Z,993.38
2022-08-25T10:31:05.201Z,993.36
2022-08-25T10:32:07.070Z,993.34
2022-08-25T10:33:05.320Z,993.38
2022-08-25T10:34:05.106Z,993.34
2022-08-25T10:35:05.132Z,993.31
2022-08-25T10:36:05.134Z,993.30
2022-08-25T10:37:05.118Z,993.31
2022-08-25T10:38:05.104Z,993.29
2022-08-25T10:39:05.113Z,993.30
2022-08-25T10:40:05.213Z,993.28
2022-08-25T10:41:05.151Z,993.25
2022-08-25T10:42:05.264Z,993.22
2022-08-25T10:43:05.365Z,993.21
2022-08-25T10:44:05.126Z,993.20
2022-08-25T10:45:05.121Z,993.16
2022-08-25T10:46:05.142Z,993.21
2022-08-25T10:47:05.152Z,993.14
2022-08-25T10:48:05.112Z,993.13
2022-08-25T10:49:05.107Z,993.11
2022-08-25T10:50:05.125Z,993.16
2022-08-25T10:51:05.125Z,993.09
2022-08-25T10:52:05.102Z,993.14
2022-08-25T10:53:05.369Z,993.17
2022-08-25T10:54:05.154Z,993.15
2022-08-25T10:55:05.145Z,993.14
2022-08-25T10:56:07.090Z,993.17
2022-08-25T10:57:07.150Z,993.13
2022-08-25T10:58:05.106Z,993.11
2022-08-25T10:59:05.113Z,993.08
2022-08-25T11:00:05.183Z,993.04
2022-08-25T11:01:05.253Z,993.03
2022-08-25T11:02:05.178Z,993.05
2022-08-25T11:03:05.271Z,993.04
2022-08-25T11:04:05.211Z,992.99
2022-08-25T11:05:05.142Z,993.04
2022-08-25T11:06:05.214Z,993.02
2022-08-25T11:07:05.144Z,992.92
2022-08-25T11:08:05.142Z,992.91
2022-08-25T11:09:05.386Z,992.93
2022-08-25T11:10:05.093Z,992.90
2022-08-25T11:11:05.527Z,992.87
2022-08-25T11:12:05.154Z,992.84
2022-08-25T11:13:06.188Z,992.82
2022-08-25T11:14:11.109Z,992.81
2022-08-25T11:15:05.371Z,992.79
2022-08-25T11:16:19.749Z,992.82
2022-08-25T11:17:05.395Z,992.76
2022-08-25T11:18:05.784Z,992.76
2022-08-25T11:19:05.718Z,992.80
2022-08-25T11:20:05.332Z,992.82
2022-08-25T11:21:05.410Z,992.78
2022-08-25T11:22:05.369Z,992.74
2022-08-25T11:23:05.343Z,992.77
2022-08-25T11:24:05.305Z,992.77
2022-08-25T11:25:05.345Z,992.75
2022-08-25T11:26:05.412Z,992.80
2022-08-25T11:27:05.118Z,992.77
2022-08-25T11:28:05.510Z,992.78
2022-08-25T11:29:05.270Z,992.79
2022-08-25T11:30:06.066Z,992.76
2022-08-25T11:31:05.698Z,992.75
2022-08-25T11:32:05.105Z,992.73
2022-08-25T11:33:05.115Z,992.70
2022-08-25T11:34:05.075Z,992.71
2022-08-25T11:35:05.101Z,992.69
2022-08-25T11:36:05.067Z,992.70
2022-08-25T11:37:05.149Z,992.69
2022-08-25T11:38:05.266Z,992.66
2022-08-25T11:39:05.267Z,992.66
2022-08-25T11:40:05.142Z,992.68
2022-08-25T11:41:11.149Z,992.64
2022-08-25T11:42:05.064Z,992.63
2022-08-25T11:43:05.079Z,992.65
2022-08-25T11:44:05.536Z,992.69
2022-08-25T11:45:05.082Z,992.68
2022-08-25T11:46:05.190Z,992.62
2022-08-25T11:47:05.610Z,992.65
2022-08-25T11:48:05.291Z,992.60
2022-08-25T11:49:05.088Z,992.60
2022-08-25T11:50:05.038Z,992.60
2022-08-25T11:51:05.073Z,992.55
2022-08-25T11:52:05.064Z,992.56
2022-08-25T11:53:05.071Z,992.54
2022-08-25T11:54:05.045Z,992.49
2022-08-25T11:55:05.061Z,992.49
2022-08-25T11:56:05.462Z,992.50
2022-08-25T11:57:05.076Z,992.50
2022-08-25T11:58:05.307Z,992.53
2022-08-25T11:59:05.065Z,992.50
2022-08-25T12:00:05.536Z,992.48
2022-08-25T12:01:05.293Z,992.45
2022-08-25T12:02:05.059Z,992.44
2022-08-25T12:03:05.557Z,992.44
2022-08-25T12:04:05.617Z,992.45
2022-08-25T12:05:05.618Z,992.47
2022-08-25T12:06:05.179Z,992.40
2022-08-25T12:07:05.523Z,992.43
2022-08-25T12:08:05.191Z,992.49
2022-08-25T12:09:05.502Z,992.43
2022-08-25T12:10:05.315Z,992.37
2022-08-25T12:11:10.447Z,992.36
2022-08-25T12:12:05.067Z,992.35
2022-08-25T12:13:05.046Z,992.34
2022-08-25T12:14:05.042Z,992.34
2022-08-25T12:15:05.039Z,992.34
2022-08-25T12:16:05.385Z,992.30
2022-08-25T12:17:05.125Z,992.36
2022-08-25T12:18:08.558Z,992.36
2022-08-25T12:19:05.035Z,992.34
2022-08-25T12:20:05.035Z,992.31
2022-08-25T12:21:05.047Z,992.29
2022-08-25T12:22:05.035Z,992.26
2022-08-25T12:23:05.237Z,992.28
2022-08-25T12:24:05.061Z,992.27
2022-08-25T12:25:05.128Z,992.22
2022-08-25T12:26:05.081Z,992.19
2022-08-25T12:27:06.624Z,992.20
2022-08-25T12:28:09.046Z,992.20
2022-08-25T12:29:07.395Z,992.21
2022-08-25T12:30:05.309Z,992.18
2022-08-25T12:31:05.130Z,992.23
2022-08-25T12:32:05.229Z,992.21
2022-08-25T12:33:05.434Z,992.21